Hlavní strana
METAR-TAF:

METAR-TAF

Letiště :

Mezinárodní letiště Soči

Soči, Rusko

zeměpisná šířka: 43-26N, zeměpisná délka: 039-54E, výška: 16 m

Aktuální stav počasí

Zpráva byla vytvořena před 32 minutami, v 22:00 UTC
Severovýchodní vítr 6 kt
Teplota 3°C
Vlhkost vzduchu 81%
Tlak 1015 hPa
Viditelnost 10 km a více

METAR: URSS 252200Z 05003MPS 9999 NSC 03/M00 Q1015 R02/010070 R06/010070 NOSIG RMK R06/00000MPS QFE760

Čas: 01:32 (22:32 UTC)

Předpověď počasí

Zpráva byla vytvořena před 2 hodinami a 37 minutami, v 19:55 UTC
Předpověď platná od 25 v 21 UTC do 26 v 21 UTC
Severovýchodní vítr 12 kt
Viditelnost 10 km a více
Změna
od 26 v 07 UTC do 26 v 08 UTC
Západní vítr 10 kt s nárazy do 19 kt
Skoro jasno ve výšce 3000 ft
Změna
od 26 v 16 UTC do 26 v 18 UTC
Severovýchodní vítr 12 kt

TAF: URSS 251955Z 2521/2621 05006MPS 9999 NSC BECMG 2607/2608 28005G10MPS FEW030 BECMG 2616/2618 05006MPS NSC

Stav a předpovědi počasí z více než 4 000 letišť (zprávy METAR a TAF).

Červené a žluté tečky na mapě představují dostupné meteorologické stanice.

Když kurzor umístíte na tečku, zobrazí se název stanice.

Pak kliknutím zobrazíte stav a předpověď počasí.

Chcete-li změnit mapu, kliknutím na zelené tlačítko se znaménkem +mapu přiblížíte, kliknutím na zelené tlačítko se znaménkem – mapu oddálíte a kliknutím na zelené šipky přejdete na sousední mapy.


METAR-TAF: